sensor_id;sensor_type;location;lat;lon;timestamp;pressure;altitude;pressure_sealevel;temperature;humidity
17311;BME280;8773;43.300;0.394;2023-04-08T00:02:03;99695.56;;;11.58;56.21
17311;BME280;8773;43.300;0.394;2023-04-08T00:04:32;99697.72;;;11.54;56.43
17311;BME280;8773;43.300;0.394;2023-04-08T00:07:00;99695.88;;;11.55;56.18
17311;BME280;8773;43.300;0.394;2023-04-08T00:09:28;99696.56;;;11.49;57.18
17311;BME280;8773;43.300;0.394;2023-04-08T00:11:56;99699.22;;;11.49;57.18
17311;BME280;8773;43.300;0.394;2023-04-08T00:14:25;99697.72;;;11.46;56.71
17311;BME280;8773;43.300;0.394;2023-04-08T00:16:53;99691.03;;;11.42;57.13
17311;BME280;8773;43.300;0.394;2023-04-08T00:19:21;99688.50;;;11.40;56.97
17311;BME280;8773;43.300;0.394;2023-04-08T00:21:50;99680.03;;;11.19;58.01
17311;BME280;8773;43.300;0.394;2023-04-08T00:24:19;99688.84;;;11.03;58.75
17311;BME280;8773;43.300;0.394;2023-04-08T00:26:47;99672.25;;;10.92;59.26
17311;BME280;8773;43.300;0.394;2023-04-08T00:29:15;99671.81;;;11.04;58.91
17311;BME280;8773;43.300;0.394;2023-04-08T00:31:44;99681.81;;;11.02;58.18
17311;BME280;8773;43.300;0.394;2023-04-08T00:34:13;99671.34;;;11.09;58.65
17311;BME280;8773;43.300;0.394;2023-04-08T00:36:41;99679.19;;;11.19;58.17
17311;BME280;8773;43.300;0.394;2023-04-08T00:39:09;99670.81;;;11.14;58.63
17311;BME280;8773;43.300;0.394;2023-04-08T00:41:37;99681.19;;;11.08;59.23
17311;BME280;8773;43.300;0.394;2023-04-08T00:44:05;99676.28;;;10.96;59.69
17311;BME280;8773;43.300;0.394;2023-04-08T00:46:36;99679.09;;;10.94;59.04
17311;BME280;8773;43.300;0.394;2023-04-08T00:49:06;99688.31;;;11.00;59.34
17311;BME280;8773;43.300;0.394;2023-04-08T00:51:35;99687.31;;;11.01;59.00
17311;BME280;8773;43.300;0.394;2023-04-08T00:54:03;99680.81;;;11.03;58.40
17311;BME280;8773;43.300;0.394;2023-04-08T00:56:33;99679.63;;;10.98;59.38
17311;BME280;8773;43.300;0.394;2023-04-08T00:59:02;99674.44;;;10.96;59.41
17311;BME280;8773;43.300;0.394;2023-04-08T01:01:35;99674.75;;;10.93;58.58
17311;BME280;8773;43.300;0.394;2023-04-08T01:04:13;99680.63;;;10.97;58.55
17311;BME280;8773;43.300;0.394;2023-04-08T01:06:49;99680.31;;;11.00;59.30
17311;BME280;8773;43.300;0.394;2023-04-08T01:09:20;99675.44;;;10.95;58.64
17311;BME280;8773;43.300;0.394;2023-04-08T01:11:51;99676.75;;;10.91;58.88
17311;BME280;8773;43.300;0.394;2023-04-08T01:14:22;99669.69;;;10.82;59.68
17311;BME280;8773;43.300;0.394;2023-04-08T01:16:54;99662.00;;;10.79;59.29
17311;BME280;8773;43.300;0.394;2023-04-08T01:19:26;99660.63;;;10.75;59.66
17311;BME280;8773;43.300;0.394;2023-04-08T01:22:02;99661.47;;;10.75;59.35
17311;BME280;8773;43.300;0.394;2023-04-08T01:24:35;99653.31;;;10.77;59.36
17311;BME280;8773;43.300;0.394;2023-04-08T01:27:08;99654.31;;;10.76;58.56
17311;BME280;8773;43.300;0.394;2023-04-08T01:29:37;99651.75;;;10.66;59.47
17311;BME280;8773;43.300;0.394;2023-04-08T01:32:06;99651.88;;;10.57;59.86
17311;BME280;8773;43.300;0.394;2023-04-08T01:34:37;99652.88;;;10.56;59.72
17311;BME280;8773;43.300;0.394;2023-04-08T01:37:07;99652.56;;;10.59;59.83
17311;BME280;8773;43.300;0.394;2023-04-08T01:39:35;99653.25;;;10.61;59.94
17311;BME280;8773;43.300;0.394;2023-04-08T01:42:06;99655.84;;;10.53;60.12
17311;BME280;8773;43.300;0.394;2023-04-08T01:44:35;99655.84;;;10.53;60.03
17311;BME280;8773;43.300;0.394;2023-04-08T01:47:03;99650.19;;;10.56;59.68
17311;BME280;8773;43.300;0.394;2023-04-08T01:49:32;99649.38;;;10.55;59.52
17311;BME280;8773;43.300;0.394;2023-04-08T01:52:00;99649.22;;;10.57;59.49
17311;BME280;8773;43.300;0.394;2023-04-08T01:54:29;99655.84;;;10.53;59.28
17311;BME280;8773;43.300;0.394;2023-04-08T01:56:57;99649.88;;;10.59;58.96
17311;BME280;8773;43.300;0.394;2023-04-08T01:59:30;99642.28;;;10.46;60.45
17311;BME280;8773;43.300;0.394;2023-04-08T02:02:03;99644.38;;;10.34;60.39
17311;BME280;8773;43.300;0.394;2023-04-08T02:04:33;99637.69;;;10.30;60.30
17311;BME280;8773;43.300;0.394;2023-04-08T02:07:01;99650.19;;;10.30;60.12
17311;BME280;8773;43.300;0.394;2023-04-08T02:09:29;99652.16;;;10.28;60.46
17311;BME280;8773;43.300;0.394;2023-04-08T02:11:57;99646.66;;;10.21;60.46
17311;BME280;8773;43.300;0.394;2023-04-08T02:14:25;99647.72;;;10.11;61.02
17311;BME280;8773;43.300;0.394;2023-04-08T02:17:01;99652.22;;;10.10;60.93
17311;BME280;8773;43.300;0.394;2023-04-08T02:19:36;99646.88;;;10.10;60.54
17311;BME280;8773;43.300;0.394;2023-04-08T02:22:11;99641.41;;;10.12;61.05
17311;BME280;8773;43.300;0.394;2023-04-08T02:24:43;99641.84;;;10.07;61.27
17311;BME280;8773;43.300;0.394;2023-04-08T02:27:13;99647.44;;;9.96;61.76
17311;BME280;8773;43.300;0.394;2023-04-08T02:29:41;99653.13;;;9.83;61.29
17311;BME280;8773;43.300;0.394;2023-04-08T02:32:11;99664.19;;;9.70;62.41
17311;BME280;8773;43.300;0.394;2023-04-08T02:34:40;99661.34;;;9.54;62.46
17311;BME280;8773;43.300;0.394;2023-04-08T02:37:09;99663.84;;;9.38;63.19
17311;BME280;8773;43.300;0.394;2023-04-08T02:39:37;99668.66;;;9.34;63.26
17311;BME280;8773;43.300;0.394;2023-04-08T02:42:05;99661.56;;;9.43;63.12
17311;BME280;8773;43.300;0.394;2023-04-08T02:44:34;99672.47;;;9.50;62.61
17311;BME280;8773;43.300;0.394;2023-04-08T02:47:02;99670.03;;;9.56;62.04
17311;BME280;8773;43.300;0.394;2023-04-08T02:49:31;99662.44;;;9.61;61.64
17311;BME280;8773;43.300;0.394;2023-04-08T02:51:59;99665.47;;;9.66;61.53
17311;BME280;8773;43.300;0.394;2023-04-08T02:54:27;99667.53;;;9.72;61.49
17311;BME280;8773;43.300;0.394;2023-04-08T02:56:55;99666.47;;;9.65;61.66
17311;BME280;8773;43.300;0.394;2023-04-08T02:59:23;99666.53;;;9.56;62.12
17311;BME280;8773;43.300;0.394;2023-04-08T03:01:51;99667.38;;;9.56;61.77
17311;BME280;8773;43.300;0.394;2023-04-08T03:04:19;99665.09;;;9.61;61.14
17311;BME280;8773;43.300;0.394;2023-04-08T03:06:49;99667.53;;;9.55;61.85
17311;BME280;8773;43.300;0.394;2023-04-08T03:09:17;99657.16;;;9.52;61.89
17311;BME280;8773;43.300;0.394;2023-04-08T03:11:45;99662.78;;;9.49;61.88
17311;BME280;8773;43.300;0.394;2023-04-08T03:14:19;99657.22;;;9.42;62.43
17311;BME280;8773;43.300;0.394;2023-04-08T03:16:47;99662.00;;;9.38;62.46
17311;BME280;8773;43.300;0.394;2023-04-08T03:19:15;99674.03;;;9.25;63.09
17311;BME280;8773;43.300;0.394;2023-04-08T03:21:43;99664.91;;;9.27;62.84
17311;BME280;8773;43.300;0.394;2023-04-08T03:24:12;99659.81;;;9.34;62.35
17311;BME280;8773;43.300;0.394;2023-04-08T03:26:41;99665.84;;;9.36;62.29
17311;BME280;8773;43.300;0.394;2023-04-08T03:29:09;99672.66;;;9.38;61.76
17311;BME280;8773;43.300;0.394;2023-04-08T03:31:37;99675.31;;;9.38;62.26
17311;BME280;8773;43.300;0.394;2023-04-08T03:34:05;99676.66;;;9.34;62.91
17311;BME280;8773;43.300;0.394;2023-04-08T03:36:33;99682.13;;;9.33;62.64
17311;BME280;8773;43.300;0.394;2023-04-08T03:39:01;99693.75;;;9.04;63.48
17311;BME280;8773;43.300;0.394;2023-04-08T03:41:31;99692.91;;;9.04;63.66
17311;BME280;8773;43.300;0.394;2023-04-08T03:43:59;99683.09;;;9.04;63.45
17311;BME280;8773;43.300;0.394;2023-04-08T03:46:27;99689.00;;;8.98;62.96
17311;BME280;8773;43.300;0.394;2023-04-08T03:48:55;99698.69;;;8.99;63.18
17311;BME280;8773;43.300;0.394;2023-04-08T03:51:23;99695.03;;;9.00;62.92
17311;BME280;8773;43.300;0.394;2023-04-08T03:53:51;99696.41;;;8.77;64.24
17311;BME280;8773;43.300;0.394;2023-04-08T03:56:19;99702.84;;;8.74;64.10
17311;BME280;8773;43.300;0.394;2023-04-08T03:58:48;99701.00;;;8.85;64.19
17311;BME280;8773;43.300;0.394;2023-04-08T04:01:17;99712.47;;;8.85;64.50
17311;BME280;8773;43.300;0.394;2023-04-08T04:03:45;99705.88;;;8.89;63.18
17311;BME280;8773;43.300;0.394;2023-04-08T04:06:13;99717.91;;;8.93;63.33
17311;BME280;8773;43.300;0.394;2023-04-08T04:08:41;99719.19;;;8.89;63.29
17311;BME280;8773;43.300;0.394;2023-04-08T04:11:09;99706.44;;;8.93;62.81
17311;BME280;8773;43.300;0.394;2023-04-08T04:13:37;99717.59;;;8.96;62.80
17311;BME280;8773;43.300;0.394;2023-04-08T04:16:06;99710.94;;;8.92;62.79
17311;BME280;8773;43.300;0.394;2023-04-08T04:18:35;99715.19;;;8.66;63.86
17311;BME280;8773;43.300;0.394;2023-04-08T04:21:04;99709.00;;;8.75;63.37
17311;BME280;8773;43.300;0.394;2023-04-08T04:23:33;99710.72;;;8.57;64.13
17311;BME280;8773;43.300;0.394;2023-04-08T04:26:01;99709.19;;;8.64;64.13
17311;BME280;8773;43.300;0.394;2023-04-08T05:07:58;99728.41;;;8.00;nan
17311;BME280;8773;43.300;0.394;2023-04-08T05:10:26;99735.22;;;7.64;nan
17311;BME280;8773;43.300;0.394;2023-04-08T05:12:54;99740.66;;;7.53;nan
17311;BME280;8773;43.300;0.394;2023-04-08T05:15:22;99735.09;;;7.75;nan
17311;BME280;8773;43.300;0.394;2023-04-08T05:17:50;99737.47;;;7.78;nan
17311;BME280;8773;43.300;0.394;2023-04-08T05:20:18;99746.44;;;7.87;nan
17311;BME280;8773;43.300;0.394;2023-04-08T05:22:48;99747.16;;;7.98;nan
17311;BME280;8773;43.300;0.394;2023-04-08T05:25:18;99735.41;;;8.10;nan
17311;BME280;8773;43.300;0.394;2023-04-08T05:27:46;99743.25;;;8.22;nan
17311;BME280;8773;43.300;0.394;2023-04-08T05:30:14;99738.75;;;8.22;nan
17311;BME280;8773;43.300;0.394;2023-04-08T05:32:42;99747.72;;;8.21;nan
17311;BME280;8773;43.300;0.394;2023-04-08T05:35:10;99749.69;;;8.19;nan
17311;BME280;8773;43.300;0.394;2023-04-08T05:37:38;99752.34;;;8.19;nan
17311;BME280;8773;43.300;0.394;2023-04-08T05:40:07;99750.94;;;8.15;nan
17311;BME280;8773;43.300;0.394;2023-04-08T05:42:36;99760.59;;;8.16;nan
17311;BME280;8773;43.300;0.394;2023-04-08T05:45:05;99749.94;;;8.16;nan
17311;BME280;8773;43.300;0.394;2023-04-08T05:47:34;99763.69;;;8.21;nan
17311;BME280;8773;43.300;0.394;2023-04-08T05:50:02;99772.50;;;8.22;nan
17311;BME280;8773;43.300;0.394;2023-04-08T05:52:30;99771.38;;;8.15;nan
17311;BME280;8773;43.300;0.394;2023-04-08T05:54:59;99769.81;;;8.12;nan
17311;BME280;8773;43.300;0.394;2023-04-08T05:57:27;99775.41;;;8.09;nan
17311;BME280;8773;43.300;0.394;2023-04-08T05:59:57;99772.66;;;8.30;nan
17311;BME280;8773;43.300;0.394;2023-04-08T06:02:25;99776.31;;;8.38;nan
17311;BME280;8773;43.300;0.394;2023-04-08T06:04:53;99781.34;;;8.41;nan
17311;BME280;8773;43.300;0.394;2023-04-08T06:07:21;99776.84;;;8.52;nan
17311;BME280;8773;43.300;0.394;2023-04-08T06:09:49;99781.03;;;8.64;nan
17311;BME280;8773;43.300;0.394;2023-04-08T06:12:17;99784.25;;;8.77;nan
17311;BME280;8773;43.300;0.394;2023-04-08T06:14:45;99784.81;;;9.18;nan
17311;BME280;8773;43.300;0.394;2023-04-08T06:17:14;99778.69;;;9.72;nan
17311;BME280;8773;43.300;0.394;2023-04-08T06:19:42;99766.88;;;10.20;nan
17311;BME280;8773;43.300;0.394;2023-04-08T06:22:10;99772.91;;;10.65;nan
17311;BME280;8773;43.300;0.394;2023-04-08T06:24:38;99770.25;;;10.65;nan
17311;BME280;8773;43.300;0.394;2023-04-08T06:27:06;99769.97;;;10.51;nan
17311;BME280;8773;43.300;0.394;2023-04-08T06:29:34;99772.56;;;10.42;nan
17311;BME280;8773;43.300;0.394;2023-04-08T06:32:03;99777.84;;;10.17;nan
17311;BME280;8773;43.300;0.394;2023-04-08T06:34:35;99780.09;;;10.91;nan
17311;BME280;8773;43.300;0.394;2023-04-08T06:37:03;99770.31;;;11.67;nan
17311;BME280;8773;43.300;0.394;2023-04-08T06:39:32;99775.50;;;12.52;nan
17311;BME280;8773;43.300;0.394;2023-04-08T06:42:00;99775.66;;;13.46;nan
17311;BME280;8773;43.300;0.394;2023-04-08T06:44:28;99775.81;;;13.84;nan
17311;BME280;8773;43.300;0.394;2023-04-08T06:46:56;99775.69;;;14.08;nan
17311;BME280;8773;43.300;0.394;2023-04-08T06:49:24;99766.59;;;14.78;nan
17311;BME280;8773;43.300;0.394;2023-04-08T06:51:54;99766.00;;;15.20;nan
17311;BME280;8773;43.300;0.394;2023-04-08T06:54:22;99771.66;;;15.10;nan
17311;BME280;8773;43.300;0.394;2023-04-08T06:56:50;99764.88;;;15.58;nan
17311;BME280;8773;43.300;0.394;2023-04-08T06:59:18;99766.81;;;15.50;nan
17311;BME280;8773;43.300;0.394;2023-04-08T07:01:46;99776.19;;;15.10;nan
17311;BME280;8773;43.300;0.394;2023-04-08T07:04:14;99774.56;;;15.38;nan
17311;BME280;8773;43.300;0.394;2023-04-08T07:06:42;99779.59;;;16.28;nan
17311;BME280;8773;43.300;0.394;2023-04-08T07:09:11;99777.84;;;16.84;nan
17311;BME280;8773;43.300;0.394;2023-04-08T07:11:39;99786.69;;;15.63;nan
17311;BME280;8773;43.300;0.394;2023-04-08T07:14:07;99779.50;;;16.43;nan
17311;BME280;8773;43.300;0.394;2023-04-08T07:16:37;99779.28;;;17.08;nan
17311;BME280;8773;43.300;0.394;2023-04-08T07:19:05;99776.63;;;17.49;nan
17311;BME280;8773;43.300;0.394;2023-04-08T07:21:33;99787.72;;;18.28;nan
17311;BME280;8773;43.300;0.394;2023-04-08T07:24:01;99770.56;;;18.76;nan
17311;BME280;8773;43.300;0.394;2023-04-08T07:26:31;99782.38;;;19.21;nan
17311;BME280;8773;43.300;0.394;2023-04-08T07:28:59;99785.69;;;19.43;nan
17311;BME280;8773;43.300;0.394;2023-04-08T07:31:27;99785.25;;;19.52;nan
17311;BME280;8773;43.300;0.394;2023-04-08T07:33:55;99780.97;;;19.76;nan
17311;BME280;8773;43.300;0.394;2023-04-08T07:36:24;99787.31;;;19.57;nan
17311;BME280;8773;43.300;0.394;2023-04-08T07:38:52;99793.03;;;19.80;nan
17311;BME280;8773;43.300;0.394;2023-04-08T07:41:20;99785.59;;;20.20;nan
17311;BME280;8773;43.300;0.394;2023-04-08T07:43:49;99795.03;;;20.74;nan
17311;BME280;8773;43.300;0.394;2023-04-08T07:46:17;99801.34;;;20.68;nan
17311;BME280;8773;43.300;0.394;2023-04-08T07:48:46;99798.47;;;20.88;nan
17311;BME280;8773;43.300;0.394;2023-04-08T07:51:14;99804.66;;;21.02;nan
17311;BME280;8773;43.300;0.394;2023-04-08T07:53:42;99809.66;;;20.73;nan
17311;BME280;8773;43.300;0.394;2023-04-08T07:56:11;99811.69;;;20.53;nan
17311;BME280;8773;43.300;0.394;2023-04-08T07:58:39;99824.06;;;19.97;nan
17311;BME280;8773;43.300;0.394;2023-04-08T08:01:15;99819.75;;;19.77;nan
17311;BME280;8773;43.300;0.394;2023-04-08T08:03:44;99820.69;;;19.18;nan
17311;BME280;8773;43.300;0.394;2023-04-08T08:06:13;99821.94;;;18.69;nan
17311;BME280;8773;43.300;0.394;2023-04-08T08:08:42;99823.94;;;18.41;nan
17311;BME280;8773;43.300;0.394;2023-04-08T08:11:10;99820.19;;;17.81;nan
17311;BME280;8773;43.300;0.394;2023-04-08T08:13:38;99829.03;;;17.61;nan
17311;BME280;8773;43.300;0.394;2023-04-08T08:16:06;99832.38;;;17.35;nan
17311;BME280;8773;43.300;0.394;2023-04-08T08:18:39;99827.78;;;17.01;nan
17311;BME280;8773;43.300;0.394;2023-04-08T08:21:07;99828.41;;;17.03;nan
17311;BME280;8773;43.300;0.394;2023-04-08T08:23:35;99827.47;;;17.18;nan
17311;BME280;8773;43.300;0.394;2023-04-08T08:26:05;99820.19;;;17.12;nan
17311;BME280;8773;43.300;0.394;2023-04-08T08:28:35;99827.06;;;17.21;nan
17311;BME280;8773;43.300;0.394;2023-04-08T08:31:03;99827.06;;;17.21;nan
17311;BME280;8773;43.300;0.394;2023-04-08T08:33:32;99829.56;;;17.16;nan
17311;BME280;8773;43.300;0.394;2023-04-08T08:36:01;99815.97;;;17.02;nan
17311;BME280;8773;43.300;0.394;2023-04-08T08:38:30;99832.91;;;17.24;nan
17311;BME280;8773;43.300;0.394;2023-04-08T08:40:59;99842.53;;;17.33;nan
17311;BME280;8773;43.300;0.394;2023-04-08T08:43:29;99836.16;;;17.41;nan
17311;BME280;8773;43.300;0.394;2023-04-08T08:45:59;99838.84;;;17.41;nan
17311;BME280;8773;43.300;0.394;2023-04-08T08:48:27;99842.81;;;16.68;nan
17311;BME280;8773;43.300;0.394;2023-04-08T08:50:56;99839.97;;;16.97;nan
17311;BME280;8773;43.300;0.394;2023-04-08T08:53:29;99836.56;;;17.10;nan
17311;BME280;8773;43.300;0.394;2023-04-08T08:56:00;99835.72;;;17.10;nan
17311;BME280;8773;43.300;0.394;2023-04-08T08:58:31;99836.41;;;17.18;nan
17311;BME280;8773;43.300;0.394;2023-04-08T09:01:00;99836.75;;;17.36;nan
17311;BME280;8773;43.300;0.394;2023-04-08T09:03:28;99847.19;;;17.46;nan
17311;BME280;8773;43.300;0.394;2023-04-08T09:05:57;99840.53;;;17.42;nan
17311;BME280;8773;43.300;0.394;2023-04-08T09:08:29;99842.03;;;17.51;nan
17311;BME280;8773;43.300;0.394;2023-04-08T09:11:11;99846.84;;;17.56;nan
17311;BME280;8773;43.300;0.394;2023-04-08T09:13:40;99848.16;;;17.66;nan
17311;BME280;8773;43.300;0.394;2023-04-08T09:16:09;99850.72;;;17.75;nan
17311;BME280;8773;43.300;0.394;2023-04-08T09:18:38;99848.31;;;17.93;nan
17311;BME280;8773;43.300;0.394;2023-04-08T09:21:06;99847.13;;;18.02;nan
17311;BME280;8773;43.300;0.394;2023-04-08T09:23:41;99849.13;;;17.87;nan
17311;BME280;8773;43.300;0.394;2023-04-08T09:26:10;99855.50;;;17.79;nan
17311;BME280;8773;43.300;0.394;2023-04-08T09:28:40;99858.09;;;17.59;nan
17311;BME280;8773;43.300;0.394;2023-04-08T09:31:17;99855.31;;;17.81;nan
17311;BME280;8773;43.300;0.394;2023-04-08T09:33:46;99854.03;;;17.77;nan
17311;BME280;8773;43.300;0.394;2023-04-08T09:36:15;99857.72;;;17.69;nan
17311;BME280;8773;43.300;0.394;2023-04-08T09:38:44;99862.78;;;17.79;nan
17311;BME280;8773;43.300;0.394;2023-04-08T09:41:14;99863.03;;;17.84;nan
17311;BME280;8773;43.300;0.394;2023-04-08T09:43:44;99855.50;;;17.45;nan
17311;BME280;8773;43.300;0.394;2023-04-08T09:46:17;99853.66;;;17.80;nan
17311;BME280;8773;43.300;0.394;2023-04-08T09:48:49;99851.34;;;18.24;nan
17311;BME280;8773;43.300;0.394;2023-04-08T09:51:18;99848.47;;;18.32;nan
17311;BME280;8773;43.300;0.394;2023-04-08T09:53:55;99858.31;;;18.53;nan
17311;BME280;8773;43.300;0.394;2023-04-08T09:56:26;99850.00;;;18.55;nan
17311;BME280;8773;43.300;0.394;2023-04-08T09:58:58;99851.50;;;18.84;nan
17311;BME280;8773;43.300;0.394;2023-04-08T10:01:31;99842.13;;;18.80;nan
17311;BME280;8773;43.300;0.394;2023-04-08T10:04:03;99850.03;;;18.75;nan
17311;BME280;8773;43.300;0.394;2023-04-08T10:06:32;99846.69;;;18.92;nan
17311;BME280;8773;43.300;0.394;2023-04-08T10:09:02;99840.47;;;19.12;nan
17311;BME280;8773;43.300;0.394;2023-04-08T10:11:31;99844.22;;;19.11;nan
17311;BME280;8773;43.300;0.394;2023-04-08T10:13:59;99848.19;;;18.88;nan
17311;BME280;8773;43.300;0.394;2023-04-08T10:16:27;99846.69;;;18.92;nan
17311;BME280;8773;43.300;0.394;2023-04-08T10:18:55;99840.03;;;18.75;nan
17311;BME280;8773;43.300;0.394;2023-04-08T10:21:31;99854.47;;;18.28;nan
17311;BME280;8773;43.300;0.394;2023-04-08T10:23:59;99850.34;;;18.39;nan
17311;BME280;8773;43.300;0.394;2023-04-08T10:26:39;99842.66;;;18.42;nan
17311;BME280;8773;43.300;0.394;2023-04-08T10:29:41;99835.66;;;18.61;nan
17311;BME280;8773;43.300;0.394;2023-04-08T10:32:27;99834.63;;;19.01;nan
17311;BME280;8773;43.300;0.394;2023-04-08T10:34:55;99838.38;;;19.14;nan
17311;BME280;8773;43.300;0.394;2023-04-08T10:37:23;99835.88;;;18.99;nan
17311;BME280;8773;43.300;0.394;2023-04-08T10:39:53;99831.94;;;19.34;nan
17311;BME280;8773;43.300;0.394;2023-04-08T10:42:27;99839.59;;;19.57;nan
17311;BME280;8773;43.300;0.394;2023-04-08T10:44:59;99832.91;;;19.66;nan
17311;BME280;8773;43.300;0.394;2023-04-08T10:47:28;99833.38;;;19.24;nan
17311;BME280;8773;43.300;0.394;2023-04-08T10:49:56;99837.78;;;19.31;nan
17311;BME280;8773;43.300;0.394;2023-04-08T10:52:24;99826.31;;;19.36;nan
17311;BME280;8773;43.300;0.394;2023-04-08T10:54:55;99833.38;;;19.17;nan
17311;BME280;8773;43.300;0.394;2023-04-08T10:57:23;99835.25;;;19.17;nan
17311;BME280;8773;43.300;0.394;2023-04-08T10:59:54;99828.56;;;19.59;nan
17311;BME280;8773;43.300;0.394;2023-04-08T11:02:22;99824.38;;;19.63;nan
17311;BME280;8773;43.300;0.394;2023-04-08T11:04:58;99829.44;;;19.33;nan
17311;BME280;8773;43.300;0.394;2023-04-08T11:07:26;99829.63;;;18.98;nan
17311;BME280;8773;43.300;0.394;2023-04-08T11:09:54;99829.44;;;19.20;nan
17311;BME280;8773;43.300;0.394;2023-04-08T11:12:22;99818.78;;;19.45;nan
17311;BME280;8773;43.300;0.394;2023-04-08T11:14:50;99827.75;;;19.45;nan
17311;BME280;8773;43.300;0.394;2023-04-08T11:17:21;99820.75;;;19.82;nan
17311;BME280;8773;43.300;0.394;2023-04-08T11:19:50;99814.28;;;19.83;nan
17311;BME280;8773;43.300;0.394;2023-04-08T11:22:19;99824.03;;;20.04;nan
17311;BME280;8773;43.300;0.394;2023-04-08T11:24:48;99821.34;;;19.91;nan
17311;BME280;8773;43.300;0.394;2023-04-08T11:27:16;99829.84;;;19.43;nan
17311;BME280;8773;43.300;0.394;2023-04-08T11:29:44;99823.69;;;19.81;nan
17311;BME280;8773;43.300;0.394;2023-04-08T11:32:12;99818.03;;;19.89;nan
17311;BME280;8773;43.300;0.394;2023-04-08T11:34:42;99815.50;;;20.00;nan
17311;BME280;8773;43.300;0.394;2023-04-08T11:37:10;99814.22;;;20.16;nan
17311;BME280;8773;43.300;0.394;2023-04-08T11:39:41;99816.50;;;19.48;nan
17311;BME280;8773;43.300;0.394;2023-04-08T11:42:25;99804.41;;;20.09;nan
17311;BME280;8773;43.300;0.394;2023-04-08T11:44:53;99814.81;;;20.18;nan
17311;BME280;8773;43.300;0.394;2023-04-08T11:47:22;99806.38;;;20.33;nan
17311;BME280;8773;43.300;0.394;2023-04-08T11:49:59;99807.78;;;20.42;nan
17311;BME280;8773;43.300;0.394;2023-04-08T11:52:42;99811.56;;;19.90;nan
17311;BME280;8773;43.300;0.394;2023-04-08T11:55:11;99804.56;;;19.76;nan
17311;BME280;8773;43.300;0.394;2023-04-08T11:57:39;99799.16;;;19.69;nan
17311;BME280;8773;43.300;0.394;2023-04-08T12:00:08;99801.22;;;19.74;nan
17311;BME280;8773;43.300;0.394;2023-04-08T12:02:36;99794.50;;;19.83;nan
17311;BME280;8773;43.300;0.394;2023-04-08T12:05:06;99794.19;;;20.17;nan
17311;BME280;8773;43.300;0.394;2023-04-08T12:07:34;99788.44;;;20.32;nan
17311;BME280;8773;43.300;0.394;2023-04-08T12:10:02;99785.97;;;20.62;nan
17311;BME280;8773;43.300;0.394;2023-04-08T12:12:31;99784.16;;;20.49;nan
17311;BME280;8773;43.300;0.394;2023-04-08T12:14:59;99782.16;;;20.38;nan
17311;BME280;8773;43.300;0.394;2023-04-08T12:17:27;99778.13;;;20.09;nan
17311;BME280;8773;43.300;0.394;2023-04-08T12:19:55;99783.22;;;20.30;nan
17311;BME280;8773;43.300;0.394;2023-04-08T12:22:24;99770.88;;;20.66;nan
17311;BME280;8773;43.300;0.394;2023-04-08T12:24:52;99789.19;;;20.46;nan
17311;BME280;8773;43.300;0.394;2023-04-08T12:27:20;99777.41;;;20.27;nan
17311;BME280;8773;43.300;0.394;2023-04-08T12:29:48;99782.63;;;20.60;nan
17311;BME280;8773;43.300;0.394;2023-04-08T12:32:17;99785.03;;;20.43;nan
17311;BME280;8773;43.300;0.394;2023-04-08T12:34:46;99790.94;;;20.33;nan
17311;BME280;8773;43.300;0.394;2023-04-08T12:37:14;99793.34;;;20.17;nan
17311;BME280;8773;43.300;0.394;2023-04-08T12:39:44;99770.94;;;20.59;nan
17311;BME280;8773;43.300;0.394;2023-04-08T12:42:13;99775.59;;;20.77;nan
17311;BME280;8773;43.300;0.394;2023-04-08T12:44:41;99767.66;;;20.76;nan
17311;BME280;8773;43.300;0.394;2023-04-08T12:47:09;99765.16;;;21.06;nan
17311;BME280;8773;43.300;0.394;2023-04-08T12:49:37;99756.69;;;20.01;nan
17311;BME280;8773;43.300;0.394;2023-04-08T12:52:08;99756.56;;;20.27;nan
17311;BME280;8773;43.300;0.394;2023-04-08T12:54:36;99761.09;;;20.33;nan
17311;BME280;8773;43.300;0.394;2023-04-08T12:57:05;99761.53;;;20.62;nan
17311;BME280;8773;43.300;0.394;2023-04-08T12:59:34;99758.63;;;20.88;nan
17311;BME280;8773;43.300;0.394;2023-04-08T13:02:03;99748.19;;;20.60;nan
17311;BME280;8773;43.300;0.394;2023-04-08T13:04:31;99754.09;;;20.51;nan
17311;BME280;8773;43.300;0.394;2023-04-08T13:06:59;99746.06;;;20.87;nan
17311;BME280;8773;43.300;0.394;2023-04-08T13:09:28;99747.91;;;20.68;nan
17311;BME280;8773;43.300;0.394;2023-04-08T13:11:56;99752.19;;;20.58;nan
17311;BME280;8773;43.300;0.394;2023-04-08T13:14:26;99746.38;;;20.54;nan
17311;BME280;8773;43.300;0.394;2023-04-08T13:16:54;99745.16;;;21.00;nan
17311;BME280;8773;43.300;0.394;2023-04-08T13:19:22;99742.72;;;20.92;nan
17311;BME280;8773;43.300;0.394;2023-04-08T13:21:50;99752.28;;;20.45;nan
17311;BME280;8773;43.300;0.394;2023-04-08T13:24:18;99744.41;;;20.37;nan
17311;BME280;8773;43.300;0.394;2023-04-08T13:26:46;99750.53;;;20.57;nan
17311;BME280;8773;43.300;0.394;2023-04-08T13:29:14;99749.06;;;20.54;nan
17311;BME280;8773;43.300;0.394;2023-04-08T13:31:43;99752.63;;;20.55;nan
17311;BME280;8773;43.300;0.394;2023-04-08T13:34:12;99745.69;;;21.09;nan
17311;BME280;8773;43.300;0.394;2023-04-08T13:36:40;99741.56;;;21.43;nan
17311;BME280;8773;43.300;0.394;2023-04-08T13:39:08;99747.50;;;21.15;nan
17311;BME280;8773;43.300;0.394;2023-04-08T13:41:36;99732.72;;;20.86;nan
17311;BME280;8773;43.300;0.394;2023-04-08T13:44:04;99734.47;;;21.05;nan
17311;BME280;8773;43.300;0.394;2023-04-08T13:46:35;99729.72;;;21.37;nan
17311;BME280;8773;43.300;0.394;2023-04-08T13:50:34;99730.63;;;21.31;20.40
17311;BME280;8773;43.300;0.394;2023-04-08T13:53:02;99737.78;;;21.25;21.04
17311;BME280;8773;43.300;0.394;2023-04-08T13:55:30;99734.09;;;21.20;21.64
17311;BME280;8773;43.300;0.394;2023-04-08T13:57:58;99733.41;;;21.24;20.22
17311;BME280;8773;43.300;0.394;2023-04-08T14:00:29;99732.19;;;21.57;20.31
17311;BME280;8773;43.300;0.394;2023-04-08T14:02:57;99730.47;;;21.44;19.94
17311;BME280;8773;43.300;0.394;2023-04-08T14:05:25;99720.88;;;21.23;19.65
17311;BME280;8773;43.300;0.394;2023-04-08T14:07:54;99732.31;;;21.07;20.05
17311;BME280;8773;43.300;0.394;2023-04-08T14:10:22;99723.22;;;21.20;19.40
17311;BME280;8773;43.300;0.394;2023-04-08T14:12:50;99728.94;;;21.12;18.23
17311;BME280;8773;43.300;0.394;2023-04-08T14:15:18;99720.22;;;21.28;17.45
17311;BME280;8773;43.300;0.394;2023-04-08T14:17:46;99725.19;;;21.68;17.62
17311;BME280;8773;43.300;0.394;2023-04-08T14:20:15;99721.13;;;21.77;17.62